createdAt,value
2023-10-31T00:00:18.418Z,99225.50
2023-10-31T00:02:44.845Z,99234.69
2023-10-31T00:05:11.247Z,99227.72
2023-10-31T00:07:37.711Z,99240.19
2023-10-31T00:10:04.325Z,99234.53
2023-10-31T00:12:30.747Z,99244.00
2023-10-31T00:14:57.171Z,99243.13
2023-10-31T00:17:23.653Z,99254.22
2023-10-31T00:19:50.164Z,99259.38
2023-10-31T00:22:16.617Z,99258.66
2023-10-31T00:24:43.450Z,99262.31
2023-10-31T00:27:10.040Z,99264.19
2023-10-31T00:29:36.459Z,99261.28
2023-10-31T00:32:04.067Z,99267.03
2023-10-31T00:34:32.415Z,99274.84
2023-10-31T00:36:58.813Z,99281.47
2023-10-31T00:39:25.175Z,99277.19
2023-10-31T00:41:51.524Z,99278.66
2023-10-31T00:44:17.873Z,99283.25
2023-10-31T00:46:44.992Z,99293.66
2023-10-31T00:49:11.461Z,99293.63
2023-10-31T00:51:37.856Z,99285.06
2023-10-31T00:54:04.319Z,99290.78
2023-10-31T00:56:30.683Z,99295.53
2023-10-31T00:58:57.099Z,99299.81
2023-10-31T01:01:23.607Z,99309.25
2023-10-31T01:03:50.011Z,99304.72
2023-10-31T01:06:16.444Z,99315.22
2023-10-31T01:08:42.855Z,99315.66
2023-10-31T01:11:09.414Z,99312.84
2023-10-31T01:13:35.804Z,99320.25
2023-10-31T01:16:02.398Z,99317.38
2023-10-31T01:18:28.831Z,99317.00
2023-10-31T01:20:55.214Z,99325.91
2023-10-31T01:23:21.658Z,99325.25
2023-10-31T01:25:48.042Z,99330.63
2023-10-31T01:28:14.421Z,99338.22
2023-10-31T01:30:40.763Z,99334.38
2023-10-31T01:33:07.248Z,99330.06
2023-10-31T01:35:34.192Z,99333.72
2023-10-31T01:38:00.607Z,99339.03
2023-10-31T01:40:27.052Z,99340.84
2023-10-31T01:42:53.438Z,99329.88
2023-10-31T01:45:20.005Z,99349.06
2023-10-31T01:47:49.373Z,99334.41
2023-10-31T01:50:16.064Z,99329.38
2023-10-31T01:52:42.827Z,99330.88
2023-10-31T01:55:10.313Z,99318.69
2023-10-31T01:57:36.750Z,99314.44
2023-10-31T02:00:03.296Z,99319.84
2023-10-31T02:02:32.905Z,99326.06
2023-10-31T02:05:00.407Z,99330.50
2023-10-31T02:07:26.806Z,99329.88
2023-10-31T02:09:53.207Z,99330.34
2023-10-31T02:12:36.260Z,99332.50
2023-10-31T02:15:03.258Z,99336.22
2023-10-31T02:17:30.013Z,99332.22
2023-10-31T02:19:56.732Z,99338.47
2023-10-31T02:22:24.069Z,99320.81
2023-10-31T02:24:50.458Z,99339.13
2023-10-31T02:27:16.881Z,99328.38
2023-10-31T02:29:43.314Z,99329.47
2023-10-31T02:32:09.774Z,99330.81
2023-10-31T02:34:36.242Z,99326.28
2023-10-31T02:37:02.779Z,99329.19
2023-10-31T02:39:29.131Z,99339.13
2023-10-31T02:41:55.554Z,99335.28
2023-10-31T02:44:21.923Z,99335.09
2023-10-31T02:46:48.310Z,99348.41
2023-10-31T02:49:14.720Z,99357.09
2023-10-31T02:51:41.331Z,99347.75
2023-10-31T02:54:07.719Z,99350.63
2023-10-31T02:56:34.146Z,99357.16
2023-10-31T02:59:03.716Z,99352.84
2023-10-31T03:01:30.629Z,99352.78
2023-10-31T03:03:57.227Z,99362.31
2023-10-31T03:06:23.670Z,99354.28
2023-10-31T03:08:50.093Z,99357.63
2023-10-31T03:11:26.960Z,99363.28
2023-10-31T03:13:54.844Z,99356.09
2023-10-31T03:16:21.536Z,99362.97
2023-10-31T03:18:48.103Z,99366.97
2023-10-31T03:21:18.747Z,99370.03
2023-10-31T03:23:50.819Z,99368.00
2023-10-31T03:26:18.045Z,99369.19
2023-10-31T03:28:45.602Z,99370.75
2023-10-31T03:31:13.297Z,99370.03
2023-10-31T03:33:40.104Z,99369.00
2023-10-31T03:36:06.834Z,99371.88
2023-10-31T03:38:33.647Z,99382.63
2023-10-31T03:41:00.139Z,99381.75
2023-10-31T03:43:26.578Z,99382.56
2023-10-31T03:45:53.507Z,99389.03
2023-10-31T03:48:19.922Z,99395.25
2023-10-31T03:50:46.359Z,99394.09
2023-10-31T03:53:12.764Z,99410.72
2023-10-31T03:55:39.264Z,99407.72
2023-10-31T03:58:06.810Z,99400.09
2023-10-31T04:00:33.240Z,99414.88
2023-10-31T04:02:59.708Z,99413.50
2023-10-31T04:05:26.220Z,99414.22
2023-10-31T04:07:52.691Z,99409.03
2023-10-31T04:10:20.076Z,99415.69
2023-10-31T04:12:46.817Z,99416.03
2023-10-31T04:15:13.320Z,99420.31
2023-10-31T04:17:39.763Z,99426.00
2023-10-31T04:20:07.154Z,99420.34
2023-10-31T04:22:33.619Z,99430.00
2023-10-31T04:25:00.000Z,99434.63
2023-10-31T04:27:26.364Z,99432.66
2023-10-31T04:29:52.741Z,99429.81
2023-10-31T04:32:19.122Z,99428.66
2023-10-31T04:34:45.558Z,99425.69
2023-10-31T04:37:11.978Z,99440.28
2023-10-31T04:39:38.355Z,99444.63
2023-10-31T04:42:04.954Z,99448.75
2023-10-31T04:44:31.369Z,99448.84
2023-10-31T04:46:57.840Z,99451.56
2023-10-31T04:49:24.279Z,99448.06
2023-10-31T04:51:50.738Z,99436.53
2023-10-31T04:54:17.114Z,99451.00
2023-10-31T04:56:43.576Z,99457.09
2023-10-31T04:59:10.250Z,99449.16
2023-10-31T05:01:36.672Z,99453.53
2023-10-31T05:04:11.163Z,99459.72
2023-10-31T05:06:39.742Z,99454.44
2023-10-31T05:09:06.184Z,99468.19
2023-10-31T05:11:33.181Z,99459.38
2023-10-31T05:13:59.986Z,99456.81
2023-10-31T05:16:26.413Z,99464.53
2023-10-31T05:18:53.653Z,99461.78
2023-10-31T05:21:21.847Z,99466.94
2023-10-31T05:23:48.228Z,99469.03
2023-10-31T05:26:14.655Z,99462.59
2023-10-31T05:28:41.046Z,99471.56
2023-10-31T05:31:07.531Z,99475.81
2023-10-31T05:33:33.911Z,99474.56
2023-10-31T05:36:00.637Z,99472.44
2023-10-31T05:38:26.993Z,99480.63
2023-10-31T05:40:53.479Z,99487.81
2023-10-31T05:43:19.863Z,99482.19
2023-10-31T05:45:46.297Z,99482.75
2023-10-31T05:48:15.672Z,99489.97
2023-10-31T05:50:43.410Z,99498.59
2023-10-31T05:53:09.886Z,99503.72
2023-10-31T05:55:39.904Z,99497.13
2023-10-31T05:58:08.800Z,99512.16
2023-10-31T06:00:38.918Z,99518.22
2023-10-31T06:03:05.795Z,99519.03
2023-10-31T06:05:32.268Z,99509.69
2023-10-31T06:07:58.687Z,99526.59
2023-10-31T06:10:25.085Z,99533.38
2023-10-31T06:12:51.464Z,99527.28
2023-10-31T06:15:17.819Z,99533.97
2023-10-31T06:17:44.296Z,99534.78
2023-10-31T06:20:11.433Z,99538.59
2023-10-31T06:22:37.830Z,99536.06
2023-10-31T06:25:04.602Z,99544.53
2023-10-31T06:27:30.996Z,99544.78
2023-10-31T06:30:11.122Z,99546.75
2023-10-31T06:32:43.780Z,99547.94
2023-10-31T06:35:10.256Z,99547.75
2023-10-31T06:37:37.165Z,99538.41
2023-10-31T06:40:04.904Z,99553.56
2023-10-31T06:42:31.685Z,99554.75
2023-10-31T06:44:58.072Z,99556.84
2023-10-31T06:47:24.699Z,99560.84
2023-10-31T06:49:51.167Z,99564.22
2023-10-31T06:52:17.531Z,99575.34
2023-10-31T06:54:44.381Z,99598.59
2023-10-31T06:57:10.785Z,99579.59
2023-10-31T06:59:37.276Z,99582.63
2023-10-31T07:02:03.791Z,99606.09
2023-10-31T07:04:30.414Z,99580.13
2023-10-31T07:06:58.668Z,99575.53
2023-10-31T07:09:26.888Z,99592.72
2023-10-31T07:11:54.098Z,99594.66
2023-10-31T07:14:20.870Z,99585.34
2023-10-31T07:16:49.832Z,99609.81
2023-10-31T07:19:16.594Z,99593.78
2023-10-31T07:21:42.966Z,99614.22
2023-10-31T07:24:10.032Z,99623.75
2023-10-31T07:26:36.990Z,99634.41
2023-10-31T07:29:03.652Z,99633.38
2023-10-31T07:31:30.093Z,99633.22
2023-10-31T07:33:57.203Z,99631.41
2023-10-31T07:36:23.665Z,99633.41
2023-10-31T07:38:50.034Z,99648.69
2023-10-31T07:41:17.081Z,99643.38
2023-10-31T07:43:48.222Z,99649.22
2023-10-31T07:46:14.702Z,99640.88
2023-10-31T07:48:43.881Z,99642.19
2023-10-31T07:51:10.252Z,99617.75
2023-10-31T07:53:36.628Z,99644.97
2023-10-31T07:56:03.318Z,99658.47
2023-10-31T07:58:29.683Z,99661.34
2023-10-31T08:00:56.079Z,99669.31
2023-10-31T08:03:22.583Z,99665.50
2023-10-31T08:05:49.035Z,99673.66
2023-10-31T08:08:15.430Z,99674.28
2023-10-31T08:10:41.920Z,99674.31
2023-10-31T08:13:08.358Z,99679.66
2023-10-31T08:15:34.784Z,99683.47
2023-10-31T08:18:01.198Z,99679.47
2023-10-31T08:20:27.777Z,99688.28
2023-10-31T08:22:54.236Z,99682.03
2023-10-31T08:25:20.587Z,99676.28
2023-10-31T08:27:47.674Z,99684.56
2023-10-31T08:30:14.209Z,99675.94
2023-10-31T08:32:40.698Z,99679.94
2023-10-31T08:35:07.465Z,99707.25
2023-10-31T08:37:33.939Z,99696.03
2023-10-31T08:40:00.292Z,99701.19
2023-10-31T08:42:26.687Z,99692.75
2023-10-31T08:44:53.048Z,99709.88
2023-10-31T08:47:19.535Z,99713.16
2023-10-31T08:49:46.158Z,99710.06
2023-10-31T08:52:12.553Z,99708.66
2023-10-31T08:54:38.906Z,99718.94
2023-10-31T08:57:05.564Z,99731.06
2023-10-31T08:59:32.011Z,99733.63
2023-10-31T09:01:58.434Z,99738.50
2023-10-31T09:04:25.000Z,99734.59
2023-10-31T09:06:51.400Z,99741.59
2023-10-31T09:09:17.844Z,99744.38
2023-10-31T09:11:44.254Z,99746.88
2023-10-31T09:14:10.916Z,99753.19
2023-10-31T09:16:37.514Z,99748.59
2023-10-31T09:19:04.006Z,99753.22
2023-10-31T09:21:30.387Z,99752.22
2023-10-31T09:23:56.838Z,99762.16
2023-10-31T09:26:23.254Z,99765.72
2023-10-31T09:28:52.369Z,99765.03
2023-10-31T09:31:19.331Z,99756.09
2023-10-31T09:33:49.160Z,99757.97
2023-10-31T09:36:15.898Z,99751.72
2023-10-31T09:38:42.542Z,99776.66
2023-10-31T09:41:09.063Z,99757.34
2023-10-31T09:43:35.626Z,99777.91
2023-10-31T09:46:03.376Z,99777.19
2023-10-31T09:48:30.225Z,99780.19
2023-10-31T09:50:57.600Z,99801.44
2023-10-31T09:53:25.231Z,99808.59
2023-10-31T09:55:54.770Z,99801.25
2023-10-31T09:58:21.146Z,99805.72
2023-10-31T10:00:47.524Z,99814.19
2023-10-31T10:03:19.480Z,99823.44
2023-10-31T10:05:47.567Z,99803.09
2023-10-31T10:08:15.757Z,99797.97
2023-10-31T10:10:42.433Z,99821.09
2023-10-31T10:13:09.977Z,99826.41
2023-10-31T10:15:49.279Z,99828.28
2023-10-31T10:18:36.394Z,99824.06
2023-10-31T10:21:04.561Z,99838.25
2023-10-31T10:23:32.831Z,99835.34
2023-10-31T10:26:01.531Z,99833.56
2023-10-31T10:28:30.396Z,99825.91
2023-10-31T10:30:56.810Z,99840.25
2023-10-31T10:33:23.800Z,99856.00
2023-10-31T10:35:50.159Z,99846.94
2023-10-31T10:38:18.399Z,99844.22
2023-10-31T10:40:46.877Z,99844.63
2023-10-31T10:43:19.771Z,99841.72
2023-10-31T10:45:50.304Z,99842.72
2023-10-31T10:48:18.098Z,99833.06
2023-10-31T10:50:47.612Z,99847.84
2023-10-31T10:53:23.170Z,99858.66
2023-10-31T10:55:53.666Z,99856.91
2023-10-31T10:58:34.859Z,99867.56
2023-10-31T11:01:03.356Z,99853.56
2023-10-31T11:03:31.102Z,99860.91
2023-10-31T11:05:58.421Z,99851.69
2023-10-31T11:08:26.364Z,99857.88
2023-10-31T11:10:55.204Z,99857.94
2023-10-31T11:13:22.100Z,99858.84
2023-10-31T11:15:51.447Z,99853.91
2023-10-31T11:18:18.795Z,99848.50
2023-10-31T11:20:46.249Z,99867.06
2023-10-31T11:23:12.672Z,99841.88
2023-10-31T11:25:44.882Z,99849.84
2023-10-31T11:28:16.321Z,99845.72
2023-10-31T11:30:44.255Z,99858.50
2023-10-31T11:33:17.323Z,99867.53
2023-10-31T11:35:46.713Z,99867.03
2023-10-31T11:38:13.746Z,99850.16
2023-10-31T11:40:45.904Z,99858.13
2023-10-31T11:43:12.736Z,99862.44
2023-10-31T11:45:48.633Z,99851.75
2023-10-31T11:48:16.334Z,99872.66
2023-10-31T11:50:43.149Z,99869.78
2023-10-31T11:53:14.505Z,99868.91
2023-10-31T11:55:43.274Z,99869.09
2023-10-31T11:58:19.544Z,99873.44
2023-10-31T12:00:51.873Z,99869.22
2023-10-31T12:03:20.612Z,99872.47
2023-10-31T12:06:03.367Z,99852.94
2023-10-31T12:08:32.101Z,99873.22
2023-10-31T12:11:07.962Z,99872.84
2023-10-31T12:13:37.790Z,99879.31
2023-10-31T12:16:06.574Z,99875.94
2023-10-31T12:18:34.364Z,99866.78
2023-10-31T12:21:01.554Z,99870.28
2023-10-31T12:23:28.495Z,99885.06
2023-10-31T12:25:58.609Z,99875.06
2023-10-31T12:28:26.368Z,99883.47
2023-10-31T12:30:55.643Z,99878.72
2023-10-31T12:33:23.237Z,99870.63
2023-10-31T12:35:50.509Z,99870.38
2023-10-31T12:38:17.229Z,99874.00
2023-10-31T12:40:47.340Z,99884.19
2023-10-31T12:43:13.946Z,99874.59
2023-10-31T12:45:40.336Z,99861.13
2023-10-31T12:48:11.215Z,99863.16
2023-10-31T12:50:40.190Z,99872.47
2023-10-31T12:53:07.761Z,99863.66
2023-10-31T12:55:42.372Z,99863.53
2023-10-31T12:58:11.349Z,99855.56
2023-10-31T13:00:38.763Z,99853.16
2023-10-31T13:03:08.048Z,99860.81
2023-10-31T13:05:35.158Z,99876.13
2023-10-31T13:08:07.316Z,99861.25
2023-10-31T13:10:34.242Z,99854.63
2023-10-31T13:13:00.810Z,99851.59
2023-10-31T13:15:27.257Z,99848.88
2023-10-31T13:17:53.961Z,99849.13
2023-10-31T13:20:22.407Z,99856.72
2023-10-31T13:22:49.307Z,99858.34
2023-10-31T13:25:17.084Z,99864.06
2023-10-31T13:27:52.269Z,99856.59
2023-10-31T13:30:18.832Z,99844.81
2023-10-31T13:32:46.065Z,99862.44
2023-10-31T13:35:13.520Z,99841.09
2023-10-31T13:37:40.017Z,99856.47
2023-10-31T13:40:11.349Z,99862.41
2023-10-31T13:42:37.756Z,99852.09
2023-10-31T13:45:07.419Z,99866.34
2023-10-31T13:47:34.868Z,99859.09
2023-10-31T13:50:01.418Z,99865.06
2023-10-31T13:52:29.569Z,99871.75
2023-10-31T13:54:55.977Z,99868.38
2023-10-31T13:57:23.522Z,99883.59
2023-10-31T13:59:51.724Z,99866.31
2023-10-31T14:02:18.622Z,99865.28
2023-10-31T14:04:45.616Z,99877.72
2023-10-31T14:07:21.458Z,99837.56
2023-10-31T14:09:49.704Z,99879.19
2023-10-31T14:12:16.332Z,99865.41
2023-10-31T14:14:42.743Z,99868.78
2023-10-31T14:17:09.137Z,99866.47
2023-10-31T14:19:40.036Z,99880.84
2023-10-31T14:22:06.870Z,99862.25
2023-10-31T14:24:33.272Z,99868.03
2023-10-31T14:27:00.307Z,99881.06
2023-10-31T14:29:26.743Z,99894.25
2023-10-31T14:31:55.622Z,99901.59
2023-10-31T14:34:22.208Z,99900.81
2023-10-31T14:36:48.579Z,99908.84
2023-10-31T14:39:15.080Z,99907.81
2023-10-31T14:41:41.526Z,99916.97
2023-10-31T14:44:09.362Z,99925.41
2023-10-31T14:46:35.998Z,99926.03
2023-10-31T14:49:02.428Z,99928.50
2023-10-31T14:51:28.793Z,99921.25
2023-10-31T14:53:55.344Z,99915.31
2023-10-31T14:56:22.998Z,99916.13
2023-10-31T14:58:49.492Z,99929.69
2023-10-31T15:01:17.246Z,99933.59
2023-10-31T15:03:43.901Z,99928.50
2023-10-31T15:06:10.733Z,99932.59
2023-10-31T15:08:37.325Z,99935.03
2023-10-31T15:11:04.061Z,99938.63
2023-10-31T15:13:30.535Z,99941.03
2023-10-31T15:15:56.962Z,99944.56
2023-10-31T15:18:23.767Z,99933.38
2023-10-31T15:20:50.342Z,99935.50
2023-10-31T15:23:16.909Z,99932.88
2023-10-31T15:25:43.384Z,99926.19
2023-10-31T15:28:09.912Z,99925.44
2023-10-31T15:30:36.328Z,99914.44
2023-10-31T15:33:02.868Z,99951.06
2023-10-31T15:35:29.396Z,99949.97
2023-10-31T15:37:55.886Z,99942.97
2023-10-31T15:40:22.337Z,99955.81
2023-10-31T15:42:48.730Z,99942.72
2023-10-31T15:45:15.286Z,99958.75
2023-10-31T15:47:41.743Z,99955.03
2023-10-31T15:50:08.961Z,99958.88
2023-10-31T15:52:38.004Z,99959.78
2023-10-31T15:55:05.283Z,99969.16
2023-10-31T15:57:31.657Z,99957.28
2023-10-31T15:59:59.179Z,99972.38
2023-10-31T16:02:26.900Z,99969.19
2023-10-31T16:04:53.564Z,99978.03
2023-10-31T16:07:21.422Z,99978.81
2023-10-31T16:09:47.844Z,99977.63
2023-10-31T16:12:15.619Z,99983.22
2023-10-31T16:14:42.472Z,99986.56
2023-10-31T16:17:09.109Z,99987.28
2023-10-31T16:19:35.958Z,99987.72
2023-10-31T16:22:03.059Z,99993.47
2023-10-31T16:24:29.550Z,99979.09
2023-10-31T16:26:55.947Z,99987.81
2023-10-31T16:29:22.409Z,99991.97
2023-10-31T16:31:49.313Z,100006.03
2023-10-31T16:34:16.031Z,100013.44
2023-10-31T16:36:42.420Z,100014.97
2023-10-31T16:39:08.969Z,100024.09
2023-10-31T16:41:35.447Z,100026.03
2023-10-31T16:44:01.907Z,100033.47
2023-10-31T16:46:28.478Z,100036.28
2023-10-31T16:48:54.839Z,100043.31
2023-10-31T16:51:22.230Z,100036.47
2023-10-31T16:53:51.250Z,100025.16
2023-10-31T16:56:18.208Z,100038.16
2023-10-31T16:58:46.881Z,100034.34
2023-10-31T17:01:16.683Z,100027.31
2023-10-31T17:03:43.555Z,100030.34
2023-10-31T17:06:12.163Z,100033.16
2023-10-31T17:08:39.947Z,100036.00
2023-10-31T17:11:07.752Z,100043.50
2023-10-31T17:13:35.333Z,100049.38
2023-10-31T17:16:03.293Z,100042.16
2023-10-31T17:18:30.763Z,100046.53
2023-10-31T17:20:57.899Z,100044.81
2023-10-31T17:23:24.743Z,100050.50
2023-10-31T17:25:53.079Z,100063.97
2023-10-31T17:28:20.029Z,100064.09
2023-10-31T17:30:46.737Z,100064.16
2023-10-31T17:33:13.925Z,100076.00
2023-10-31T17:35:40.994Z,100077.78
2023-10-31T17:38:07.819Z,100079.59
2023-10-31T17:40:36.150Z,100078.50
2023-10-31T17:43:02.654Z,100092.75
2023-10-31T17:45:29.096Z,100088.19
2023-10-31T17:47:57.456Z,100080.50
2023-10-31T17:50:24.169Z,100101.53
2023-10-31T17:52:50.660Z,100104.63
2023-10-31T17:55:20.116Z,100107.50
2023-10-31T17:57:46.552Z,100111.47
2023-10-31T18:00:13.487Z,100117.41
2023-10-31T18:02:39.950Z,100124.94
2023-10-31T18:05:09.946Z,100124.50
2023-10-31T18:07:36.536Z,100122.09
2023-10-31T18:10:03.072Z,100122.41
2023-10-31T18:12:29.483Z,100137.56
2023-10-31T18:14:56.024Z,100133.09
2023-10-31T18:17:22.415Z,100127.25
2023-10-31T18:19:48.827Z,100125.66
2023-10-31T18:22:15.991Z,100133.97
2023-10-31T18:24:43.755Z,100136.16
2023-10-31T18:27:10.143Z,100130.16
2023-10-31T18:29:36.735Z,100135.78
2023-10-31T18:32:04.481Z,100136.22
2023-10-31T18:34:31.141Z,100136.72
2023-10-31T18:36:57.610Z,100144.84
2023-10-31T18:39:24.020Z,100147.03
2023-10-31T18:41:59.946Z,100156.22
2023-10-31T18:44:42.204Z,100138.78
2023-10-31T18:47:13.612Z,100148.06
2023-10-31T18:49:40.186Z,100153.81
2023-10-31T18:52:06.872Z,100142.81
2023-10-31T18:54:33.402Z,100146.03
2023-10-31T18:56:59.860Z,100138.50
2023-10-31T18:59:26.793Z,100129.41
2023-10-31T19:01:59.447Z,100144.44
2023-10-31T19:04:26.842Z,100135.03
2023-10-31T19:06:53.388Z,100140.94
2023-10-31T19:09:20.686Z,100137.00
2023-10-31T19:11:50.346Z,100140.19
2023-10-31T19:14:17.126Z,100136.94
2023-10-31T19:16:43.547Z,100143.44
2023-10-31T19:19:10.113Z,100139.69
2023-10-31T19:21:37.144Z,100138.88
2023-10-31T19:24:04.058Z,100146.44
2023-10-31T19:26:30.466Z,100134.81
2023-10-31T19:28:56.865Z,100143.06
2023-10-31T19:31:23.328Z,100143.56
2023-10-31T19:33:51.048Z,100135.72
2023-10-31T19:36:18.350Z,100139.53
2023-10-31T19:38:44.821Z,100150.75
2023-10-31T19:41:11.360Z,100147.19
2023-10-31T19:43:37.781Z,100145.81
2023-10-31T19:46:05.057Z,100153.28
2023-10-31T19:48:31.599Z,100154.19
2023-10-31T19:50:58.031Z,100155.31
2023-10-31T19:53:24.761Z,100154.38
2023-10-31T19:55:51.260Z,100159.66
2023-10-31T19:58:19.706Z,100153.97
2023-10-31T20:00:46.114Z,100146.34
2023-10-31T20:03:13.701Z,100156.78
2023-10-31T20:05:40.354Z,100164.94
2023-10-31T20:08:06.862Z,100154.81
2023-10-31T20:10:33.332Z,100163.44
2023-10-31T20:12:59.762Z,100151.81
2023-10-31T20:15:26.271Z,100155.22
2023-10-31T20:17:52.702Z,100156.38
2023-10-31T20:20:19.143Z,100157.22
2023-10-31T20:22:45.593Z,100151.50
2023-10-31T20:25:12.486Z,100165.00
2023-10-31T20:27:38.896Z,100164.94
2023-10-31T20:30:06.143Z,100169.91
2023-10-31T20:32:35.362Z,100169.66
2023-10-31T20:35:02.063Z,100160.88
2023-10-31T20:37:28.482Z,100164.63
2023-10-31T20:39:54.874Z,100166.78
2023-10-31T20:42:21.297Z,100161.41
2023-10-31T20:44:48.107Z,100168.19
2023-10-31T20:47:14.615Z,100158.91
2023-10-31T20:49:41.289Z,100159.94
2023-10-31T20:52:07.703Z,100160.38
2023-10-31T20:54:35.412Z,100163.84
2023-10-31T20:57:01.975Z,100163.69
2023-10-31T20:59:28.376Z,100160.38
2023-10-31T21:01:54.823Z,100160.91
2023-10-31T21:04:21.716Z,100158.91
2023-10-31T21:06:48.115Z,100163.22
2023-10-31T21:09:15.719Z,100161.91
2023-10-31T21:11:42.244Z,100157.13
2023-10-31T21:14:08.969Z,100147.94
2023-10-31T21:16:35.421Z,100135.09
2023-10-31T21:19:01.826Z,100144.44
2023-10-31T21:21:28.257Z,100138.47
2023-10-31T21:23:54.650Z,100146.59
2023-10-31T21:26:21.615Z,100152.50
2023-10-31T21:28:48.260Z,100139.75
2023-10-31T21:31:15.245Z,100146.94
2023-10-31T21:33:44.849Z,100148.00
2023-10-31T21:36:12.047Z,100154.84
2023-10-31T21:38:39.018Z,100154.19
2023-10-31T21:41:08.785Z,100149.41
2023-10-31T21:43:35.537Z,100144.59
2023-10-31T21:46:02.557Z,100148.09
2023-10-31T21:48:28.990Z,100140.56
2023-10-31T21:50:57.419Z,100140.56
2023-10-31T21:57:04.447Z,100139.66
2023-10-31T21:59:31.415Z,100150.84
2023-10-31T22:01:57.822Z,100145.81
2023-10-31T22:04:24.686Z,100150.47
2023-10-31T22:06:51.125Z,100143.13
2023-10-31T22:09:17.548Z,100149.84
2023-10-31T22:11:44.388Z,100158.75
2023-10-31T22:14:10.977Z,100144.97
2023-10-31T22:16:37.389Z,100158.69
2023-10-31T22:19:05.425Z,100131.25
2023-10-31T22:21:31.880Z,100152.81
2023-10-31T22:23:58.299Z,100150.78
2023-10-31T22:26:24.707Z,100168.09
2023-10-31T22:28:51.120Z,100170.13
2023-10-31T22:31:17.583Z,100168.28
2023-10-31T22:33:44.989Z,100163.22
2023-10-31T22:36:12.582Z,100165.44
2023-10-31T22:38:39.412Z,100159.38
2023-10-31T22:41:06.634Z,100164.53
2023-10-31T22:43:34.043Z,100168.50
2023-10-31T22:46:00.688Z,100172.28
2023-10-31T22:48:27.373Z,100168.34
2023-10-31T22:50:53.815Z,100163.22
2023-10-31T22:53:21.619Z,100161.69
2023-10-31T22:55:48.148Z,100160.16
2023-10-31T22:58:14.762Z,100159.56
2023-10-31T23:00:41.617Z,100156.47
2023-10-31T23:03:08.354Z,100149.34
2023-10-31T23:05:35.294Z,100149.88
2023-10-31T23:08:01.810Z,100146.44
2023-10-31T23:10:28.220Z,100127.69
2023-10-31T23:12:56.567Z,100139.34
2023-10-31T23:15:23.109Z,100154.88
2023-10-31T23:17:52.973Z,100140.09
2023-10-31T23:20:19.883Z,100142.53
2023-10-31T23:22:46.767Z,100146.13
2023-10-31T23:25:13.159Z,100146.34
2023-10-31T23:27:42.876Z,100142.22
2023-10-31T23:30:10.196Z,100139.72
2023-10-31T23:32:36.794Z,100131.50
2023-10-31T23:35:03.433Z,100145.19
2023-10-31T23:37:29.877Z,100142.44
2023-10-31T23:39:58.278Z,100141.59
2023-10-31T23:42:24.694Z,100136.00
2023-10-31T23:44:51.104Z,100137.94
2023-10-31T23:47:17.518Z,100135.53
2023-10-31T23:49:43.916Z,100137.06
2023-10-31T23:52:10.919Z,100136.22
2023-10-31T23:54:37.338Z,100127.31
2023-10-31T23:57:03.951Z,100125.63
2023-10-31T23:59:30.745Z,100130.22
